sensor_id;sensor_type;location;lat;lon;timestamp;temperature;humidity
12761;DHT22;6444;49.742;6.114;2023-12-29T00:01:50;9.70;99.90
12761;DHT22;6444;49.742;6.114;2023-12-29T00:04:16;10.00;99.90
12761;DHT22;6444;49.742;6.114;2023-12-29T00:06:43;9.80;99.90
12761;DHT22;6444;49.742;6.114;2023-12-29T00:09:11;10.40;99.90
12761;DHT22;6444;49.742;6.114;2023-12-29T00:11:37;10.40;99.90
12761;DHT22;6444;49.742;6.114;2023-12-29T00:14:04;10.80;99.90
12761;DHT22;6444;49.742;6.114;2023-12-29T00:16:30;10.70;99.90
12761;DHT22;6444;49.742;6.114;2023-12-29T00:18:57;10.30;99.90
12761;DHT22;6444;49.742;6.114;2023-12-29T00:21:24;10.10;99.90
12761;DHT22;6444;49.742;6.114;2023-12-29T00:23:51;10.10;99.90
12761;DHT22;6444;49.742;6.114;2023-12-29T00:26:18;9.90;99.90
12761;DHT22;6444;49.742;6.114;2023-12-29T00:28:44;9.90;99.90
12761;DHT22;6444;49.742;6.114;2023-12-29T00:31:15;9.70;99.90
12761;DHT22;6444;49.742;6.114;2023-12-29T00:33:44;9.70;99.90
12761;DHT22;6444;49.742;6.114;2023-12-29T00:36:17;9.70;99.90
12761;DHT22;6444;49.742;6.114;2023-12-29T00:38:42;10.00;99.90
12761;DHT22;6444;49.742;6.114;2023-12-29T00:41:09;9.70;99.90
12761;DHT22;6444;49.742;6.114;2023-12-29T00:43:36;9.80;99.90
12761;DHT22;6444;49.742;6.114;2023-12-29T00:46:03;9.70;99.90
12761;DHT22;6444;49.742;6.114;2023-12-29T00:48:30;9.80;99.90
12761;DHT22;6444;49.742;6.114;2023-12-29T00:50:56;9.80;99.90
12761;DHT22;6444;49.742;6.114;2023-12-29T00:53:23;9.60;99.90
12761;DHT22;6444;49.742;6.114;2023-12-29T00:55:49;9.50;99.90
12761;DHT22;6444;49.742;6.114;2023-12-29T00:58:16;9.50;99.90
12761;DHT22;6444;49.742;6.114;2023-12-29T01:00:43;9.60;99.90
12761;DHT22;6444;49.742;6.114;2023-12-29T01:03:09;9.50;99.90
12761;DHT22;6444;49.742;6.114;2023-12-29T01:05:36;9.50;99.90
12761;DHT22;6444;49.742;6.114;2023-12-29T01:08:03;9.60;99.90
12761;DHT22;6444;49.742;6.114;2023-12-29T01:10:31;9.50;99.90
12761;DHT22;6444;49.742;6.114;2023-12-29T01:12:57;9.40;99.90
12761;DHT22;6444;49.742;6.114;2023-12-29T01:15:24;9.60;99.90
12761;DHT22;6444;49.742;6.114;2023-12-29T01:17:51;9.70;99.90
12761;DHT22;6444;49.742;6.114;2023-12-29T01:20:18;9.60;99.90
12761;DHT22;6444;49.742;6.114;2023-12-29T01:22:45;9.60;99.90
12761;DHT22;6444;49.742;6.114;2023-12-29T01:25:11;9.50;99.90
12761;DHT22;6444;49.742;6.114;2023-12-29T01:27:38;9.50;99.90
12761;DHT22;6444;49.742;6.114;2023-12-29T01:30:05;9.40;99.90
12761;DHT22;6444;49.742;6.114;2023-12-29T01:32:31;9.30;99.90
12761;DHT22;6444;49.742;6.114;2023-12-29T01:34:58;9.30;99.90
12761;DHT22;6444;49.742;6.114;2023-12-29T01:37:25;9.30;99.90
12761;DHT22;6444;49.742;6.114;2023-12-29T01:39:51;9.50;99.90
12761;DHT22;6444;49.742;6.114;2023-12-29T01:42:18;9.40;99.90
12761;DHT22;6444;49.742;6.114;2023-12-29T01:44:45;9.50;99.90
12761;DHT22;6444;49.742;6.114;2023-12-29T01:47:13;9.50;99.90
12761;DHT22;6444;49.742;6.114;2023-12-29T01:49:39;9.40;99.90
12761;DHT22;6444;49.742;6.114;2023-12-29T01:52:05;9.40;99.90
12761;DHT22;6444;49.742;6.114;2023-12-29T01:54:32;9.40;99.90
12761;DHT22;6444;49.742;6.114;2023-12-29T01:56:59;9.30;99.90
12761;DHT22;6444;49.742;6.114;2023-12-29T01:59:25;9.40;99.90
12761;DHT22;6444;49.742;6.114;2023-12-29T02:01:53;9.40;99.90
12761;DHT22;6444;49.742;6.114;2023-12-29T02:04:18;9.40;99.90
12761;DHT22;6444;49.742;6.114;2023-12-29T02:06:45;9.20;99.90
12761;DHT22;6444;49.742;6.114;2023-12-29T02:09:12;9.20;99.90
12761;DHT22;6444;49.742;6.114;2023-12-29T02:11:38;9.40;99.90
12761;DHT22;6444;49.742;6.114;2023-12-29T02:14:05;9.30;99.90
12761;DHT22;6444;49.742;6.114;2023-12-29T02:16:35;9.20;99.90
12761;DHT22;6444;49.742;6.114;2023-12-29T02:19:01;9.40;99.90
12761;DHT22;6444;49.742;6.114;2023-12-29T02:21:28;9.40;99.90
12761;DHT22;6444;49.742;6.114;2023-12-29T02:23:54;9.30;99.90
12761;DHT22;6444;49.742;6.114;2023-12-29T02:26:22;9.50;99.90
12761;DHT22;6444;49.742;6.114;2023-12-29T02:28:50;9.40;99.90
12761;DHT22;6444;49.742;6.114;2023-12-29T02:31:16;9.40;99.90
12761;DHT22;6444;49.742;6.114;2023-12-29T02:33:41;9.50;99.90
12761;DHT22;6444;49.742;6.114;2023-12-29T02:36:08;9.30;99.90
12761;DHT22;6444;49.742;6.114;2023-12-29T02:38:35;9.30;99.90
12761;DHT22;6444;49.742;6.114;2023-12-29T02:41:01;9.30;99.90
12761;DHT22;6444;49.742;6.114;2023-12-29T02:43:30;9.10;99.90
12761;DHT22;6444;49.742;6.114;2023-12-29T02:45:55;9.10;99.90
12761;DHT22;6444;49.742;6.114;2023-12-29T02:48:22;9.10;99.90
12761;DHT22;6444;49.742;6.114;2023-12-29T02:50:49;9.30;99.90
12761;DHT22;6444;49.742;6.114;2023-12-29T02:53:15;9.40;99.90
12761;DHT22;6444;49.742;6.114;2023-12-29T02:55:42;9.50;99.90
12761;DHT22;6444;49.742;6.114;2023-12-29T03:00:31;9.30;99.90
12761;DHT22;6444;49.742;6.114;2023-12-29T03:02:57;9.30;99.90
12761;DHT22;6444;49.742;6.114;2023-12-29T03:05:24;9.40;99.90
12761;DHT22;6444;49.742;6.114;2023-12-29T03:07:51;9.70;99.90
12761;DHT22;6444;49.742;6.114;2023-12-29T03:10:17;10.00;99.90
12761;DHT22;6444;49.742;6.114;2023-12-29T03:12:44;9.60;99.90
12761;DHT22;6444;49.742;6.114;2023-12-29T03:15:11;9.50;99.90
12761;DHT22;6444;49.742;6.114;2023-12-29T03:17:37;9.50;99.90
12761;DHT22;6444;49.742;6.114;2023-12-29T03:20:05;9.70;99.90
12761;DHT22;6444;49.742;6.114;2023-12-29T03:22:31;9.60;99.90
12761;DHT22;6444;49.742;6.114;2023-12-29T03:24:58;9.70;99.90
12761;DHT22;6444;49.742;6.114;2023-12-29T03:27:25;9.60;99.90
12761;DHT22;6444;49.742;6.114;2023-12-29T03:29:51;9.60;99.90
12761;DHT22;6444;49.742;6.114;2023-12-29T03:32:18;9.50;99.90
12761;DHT22;6444;49.742;6.114;2023-12-29T03:34:45;9.50;99.90
12761;DHT22;6444;49.742;6.114;2023-12-29T03:37:12;9.40;99.90
12761;DHT22;6444;49.742;6.114;2023-12-29T03:39:39;9.20;99.90
12761;DHT22;6444;49.742;6.114;2023-12-29T03:42:05;9.70;99.90
12761;DHT22;6444;49.742;6.114;2023-12-29T03:44:32;9.80;99.90
12761;DHT22;6444;49.742;6.114;2023-12-29T03:46:59;9.70;99.90
12761;DHT22;6444;49.742;6.114;2023-12-29T03:49:25;9.70;99.90
12761;DHT22;6444;49.742;6.114;2023-12-29T03:51:52;9.50;99.90
12761;DHT22;6444;49.742;6.114;2023-12-29T03:54:18;9.60;99.90
12761;DHT22;6444;49.742;6.114;2023-12-29T03:56:46;9.60;99.90
12761;DHT22;6444;49.742;6.114;2023-12-29T03:59:12;9.50;99.90
12761;DHT22;6444;49.742;6.114;2023-12-29T04:01:39;9.60;99.90
12761;DHT22;6444;49.742;6.114;2023-12-29T04:04:06;9.60;99.90
12761;DHT22;6444;49.742;6.114;2023-12-29T04:06:32;9.70;99.90
12761;DHT22;6444;49.742;6.114;2023-12-29T04:08:59;9.70;99.90
12761;DHT22;6444;49.742;6.114;2023-12-29T04:11:26;9.50;99.90
12761;DHT22;6444;49.742;6.114;2023-12-29T04:13:52;9.70;99.90
12761;DHT22;6444;49.742;6.114;2023-12-29T04:16:19;9.80;99.90
12761;DHT22;6444;49.742;6.114;2023-12-29T04:18:45;9.80;99.90
12761;DHT22;6444;49.742;6.114;2023-12-29T04:21:15;9.60;99.90
12761;DHT22;6444;49.742;6.114;2023-12-29T04:23:42;9.60;99.90
12761;DHT22;6444;49.742;6.114;2023-12-29T04:26:09;9.60;99.90
12761;DHT22;6444;49.742;6.114;2023-12-29T04:28:36;9.60;99.90
12761;DHT22;6444;49.742;6.114;2023-12-29T04:31:02;9.60;99.90
12761;DHT22;6444;49.742;6.114;2023-12-29T04:33:29;9.80;99.90
12761;DHT22;6444;49.742;6.114;2023-12-29T04:35:56;9.60;99.90
12761;DHT22;6444;49.742;6.114;2023-12-29T04:38:23;9.60;99.90
12761;DHT22;6444;49.742;6.114;2023-12-29T04:40:50;9.50;99.90
12761;DHT22;6444;49.742;6.114;2023-12-29T04:43:16;9.50;99.90
12761;DHT22;6444;49.742;6.114;2023-12-29T04:45:43;9.70;99.90
12761;DHT22;6444;49.742;6.114;2023-12-29T04:48:09;9.90;99.90
12761;DHT22;6444;49.742;6.114;2023-12-29T04:50:36;10.20;99.90
12761;DHT22;6444;49.742;6.114;2023-12-29T04:53:03;10.00;99.90
12761;DHT22;6444;49.742;6.114;2023-12-29T04:55:29;9.70;99.90
12761;DHT22;6444;49.742;6.114;2023-12-29T04:57:56;9.80;99.90
12761;DHT22;6444;49.742;6.114;2023-12-29T05:00:23;9.90;99.90
12761;DHT22;6444;49.742;6.114;2023-12-29T05:02:49;9.90;99.90
12761;DHT22;6444;49.742;6.114;2023-12-29T05:05:16;9.90;99.90
12761;DHT22;6444;49.742;6.114;2023-12-29T05:07:42;10.00;99.90
12761;DHT22;6444;49.742;6.114;2023-12-29T05:10:09;10.10;99.90
12761;DHT22;6444;49.742;6.114;2023-12-29T05:12:36;10.10;99.90
12761;DHT22;6444;49.742;6.114;2023-12-29T05:15:03;9.90;99.90
12761;DHT22;6444;49.742;6.114;2023-12-29T05:17:29;9.90;99.90
12761;DHT22;6444;49.742;6.114;2023-12-29T05:19:56;9.90;99.90
12761;DHT22;6444;49.742;6.114;2023-12-29T05:22:22;10.10;99.90
12761;DHT22;6444;49.742;6.114;2023-12-29T05:24:49;10.00;99.90
12761;DHT22;6444;49.742;6.114;2023-12-29T05:27:16;10.20;99.90
12761;DHT22;6444;49.742;6.114;2023-12-29T05:29:42;10.30;99.90
12761;DHT22;6444;49.742;6.114;2023-12-29T05:32:09;10.30;99.90
12761;DHT22;6444;49.742;6.114;2023-12-29T05:34:36;10.00;99.90
12761;DHT22;6444;49.742;6.114;2023-12-29T05:37:02;9.90;99.90
12761;DHT22;6444;49.742;6.114;2023-12-29T05:39:29;10.10;99.90
12761;DHT22;6444;49.742;6.114;2023-12-29T05:41:56;10.30;99.90
12761;DHT22;6444;49.742;6.114;2023-12-29T05:44:22;10.40;99.90
12761;DHT22;6444;49.742;6.114;2023-12-29T05:46:49;10.10;99.90
12761;DHT22;6444;49.742;6.114;2023-12-29T05:49:15;10.10;99.90
12761;DHT22;6444;49.742;6.114;2023-12-29T05:51:43;10.20;99.90
12761;DHT22;6444;49.742;6.114;2023-12-29T05:54:09;10.10;99.90
12761;DHT22;6444;49.742;6.114;2023-12-29T05:56:35;10.00;99.90
12761;DHT22;6444;49.742;6.114;2023-12-29T05:59:02;9.80;99.90
12761;DHT22;6444;49.742;6.114;2023-12-29T06:01:29;9.90;99.90
12761;DHT22;6444;49.742;6.114;2023-12-29T06:03:55;10.00;99.90
12761;DHT22;6444;49.742;6.114;2023-12-29T06:06:22;10.00;99.90
12761;DHT22;6444;49.742;6.114;2023-12-29T06:08:48;10.00;99.90
12761;DHT22;6444;49.742;6.114;2023-12-29T06:11:15;10.00;99.90
12761;DHT22;6444;49.742;6.114;2023-12-29T06:13:42;9.80;99.90
12761;DHT22;6444;49.742;6.114;2023-12-29T06:16:09;9.80;99.90
12761;DHT22;6444;49.742;6.114;2023-12-29T06:18:36;9.90;99.90
12761;DHT22;6444;49.742;6.114;2023-12-29T06:21:02;9.80;99.90
12761;DHT22;6444;49.742;6.114;2023-12-29T06:23:29;9.60;99.90
12761;DHT22;6444;49.742;6.114;2023-12-29T06:25:56;9.70;99.90
12761;DHT22;6444;49.742;6.114;2023-12-29T06:28:22;9.90;99.90
12761;DHT22;6444;49.742;6.114;2023-12-29T06:30:49;9.90;99.90
12761;DHT22;6444;49.742;6.114;2023-12-29T06:33:15;9.80;99.90
12761;DHT22;6444;49.742;6.114;2023-12-29T06:35:42;9.90;99.90
12761;DHT22;6444;49.742;6.114;2023-12-29T06:38:09;9.80;99.90
12761;DHT22;6444;49.742;6.114;2023-12-29T06:40:35;9.70;99.90
12761;DHT22;6444;49.742;6.114;2023-12-29T06:43:02;9.80;99.90
12761;DHT22;6444;49.742;6.114;2023-12-29T06:45:29;9.90;99.90
12761;DHT22;6444;49.742;6.114;2023-12-29T06:47:55;10.10;99.90
12761;DHT22;6444;49.742;6.114;2023-12-29T06:50:22;9.90;99.90
12761;DHT22;6444;49.742;6.114;2023-12-29T06:52:48;9.90;99.90
12761;DHT22;6444;49.742;6.114;2023-12-29T06:55:15;9.80;99.90
12761;DHT22;6444;49.742;6.114;2023-12-29T06:57:43;9.70;99.90
12761;DHT22;6444;49.742;6.114;2023-12-29T07:00:08;9.90;99.90
12761;DHT22;6444;49.742;6.114;2023-12-29T07:02:37;10.00;99.90
12761;DHT22;6444;49.742;6.114;2023-12-29T07:05:02;9.90;99.90
12761;DHT22;6444;49.742;6.114;2023-12-29T07:07:28;9.70;99.90
12761;DHT22;6444;49.742;6.114;2023-12-29T07:09:55;9.80;99.90
12761;DHT22;6444;49.742;6.114;2023-12-29T07:12:21;9.80;99.90
12761;DHT22;6444;49.742;6.114;2023-12-29T07:14:48;10.00;99.90
12761;DHT22;6444;49.742;6.114;2023-12-29T07:17:15;10.00;99.90
12761;DHT22;6444;49.742;6.114;2023-12-29T07:19:41;10.10;99.90
12761;DHT22;6444;49.742;6.114;2023-12-29T07:22:08;10.10;99.90
12761;DHT22;6444;49.742;6.114;2023-12-29T07:24:35;10.10;99.90
12761;DHT22;6444;49.742;6.114;2023-12-29T07:27:01;10.10;99.90
12761;DHT22;6444;49.742;6.114;2023-12-29T07:29:28;10.20;99.90
12761;DHT22;6444;49.742;6.114;2023-12-29T07:31:55;10.30;99.90
12761;DHT22;6444;49.742;6.114;2023-12-29T07:34:21;10.40;99.90
12761;DHT22;6444;49.742;6.114;2023-12-29T07:36:48;10.30;99.90
12761;DHT22;6444;49.742;6.114;2023-12-29T07:39:14;10.10;99.90
12761;DHT22;6444;49.742;6.114;2023-12-29T07:41:41;10.20;99.90
12761;DHT22;6444;49.742;6.114;2023-12-29T07:44:10;10.20;99.90
12761;DHT22;6444;49.742;6.114;2023-12-29T07:46:37;10.00;99.90
12761;DHT22;6444;49.742;6.114;2023-12-29T07:49:04;10.20;99.90
12761;DHT22;6444;49.742;6.114;2023-12-29T07:51:30;10.20;99.90
12761;DHT22;6444;49.742;6.114;2023-12-29T07:53:57;10.20;99.90
12761;DHT22;6444;49.742;6.114;2023-12-29T07:56:24;9.70;99.90
12761;DHT22;6444;49.742;6.114;2023-12-29T07:58:51;9.70;99.90
12761;DHT22;6444;49.742;6.114;2023-12-29T08:01:17;9.50;99.90
12761;DHT22;6444;49.742;6.114;2023-12-29T08:03:45;9.50;99.90
12761;DHT22;6444;49.742;6.114;2023-12-29T08:06:11;9.50;99.90
12761;DHT22;6444;49.742;6.114;2023-12-29T08:08:38;9.30;99.90
12761;DHT22;6444;49.742;6.114;2023-12-29T08:11:05;9.30;99.90
12761;DHT22;6444;49.742;6.114;2023-12-29T08:13:31;9.20;99.90
12761;DHT22;6444;49.742;6.114;2023-12-29T08:15:58;9.40;99.90
12761;DHT22;6444;49.742;6.114;2023-12-29T08:18:25;9.30;99.90
12761;DHT22;6444;49.742;6.114;2023-12-29T08:20:51;9.30;99.90
12761;DHT22;6444;49.742;6.114;2023-12-29T08:23:18;9.40;99.90
12761;DHT22;6444;49.742;6.114;2023-12-29T08:25:44;9.50;99.90
12761;DHT22;6444;49.742;6.114;2023-12-29T08:28:11;9.40;99.90
12761;DHT22;6444;49.742;6.114;2023-12-29T08:30:38;9.20;99.90
12761;DHT22;6444;49.742;6.114;2023-12-29T08:33:05;9.10;99.90
12761;DHT22;6444;49.742;6.114;2023-12-29T08:35:32;9.10;99.90
12761;DHT22;6444;49.742;6.114;2023-12-29T08:37:59;9.20;99.90
12761;DHT22;6444;49.742;6.114;2023-12-29T08:40:26;9.10;99.90
12761;DHT22;6444;49.742;6.114;2023-12-29T08:42:53;9.20;99.90
12761;DHT22;6444;49.742;6.114;2023-12-29T08:45:19;9.30;99.90
12761;DHT22;6444;49.742;6.114;2023-12-29T08:47:47;9.30;99.90
12761;DHT22;6444;49.742;6.114;2023-12-29T08:50:13;9.20;99.90
12761;DHT22;6444;49.742;6.114;2023-12-29T08:52:40;9.50;99.90
12761;DHT22;6444;49.742;6.114;2023-12-29T08:55:07;9.40;99.90
12761;DHT22;6444;49.742;6.114;2023-12-29T08:57:34;9.40;99.90
12761;DHT22;6444;49.742;6.114;2023-12-29T09:00:01;9.30;99.90
12761;DHT22;6444;49.742;6.114;2023-12-29T09:02:27;9.30;99.90
12761;DHT22;6444;49.742;6.114;2023-12-29T09:04:54;9.70;99.90
12761;DHT22;6444;49.742;6.114;2023-12-29T09:07:22;9.40;99.90
12761;DHT22;6444;49.742;6.114;2023-12-29T09:09:48;9.40;99.90
12761;DHT22;6444;49.742;6.114;2023-12-29T09:12:14;9.60;99.90
12761;DHT22;6444;49.742;6.114;2023-12-29T09:14:41;9.50;99.90
12761;DHT22;6444;49.742;6.114;2023-12-29T09:17:08;9.40;99.90
12761;DHT22;6444;49.742;6.114;2023-12-29T09:19:34;9.30;99.90
12761;DHT22;6444;49.742;6.114;2023-12-29T09:22:01;9.20;99.90
12761;DHT22;6444;49.742;6.114;2023-12-29T09:24:28;9.20;99.90
12761;DHT22;6444;49.742;6.114;2023-12-29T09:26:54;9.20;99.90
12761;DHT22;6444;49.742;6.114;2023-12-29T09:29:21;9.30;99.90
12761;DHT22;6444;49.742;6.114;2023-12-29T09:31:48;9.20;99.90
12761;DHT22;6444;49.742;6.114;2023-12-29T09:34:15;9.20;99.90
12761;DHT22;6444;49.742;6.114;2023-12-29T09:36:42;9.20;99.90
12761;DHT22;6444;49.742;6.114;2023-12-29T09:39:08;9.20;99.90
12761;DHT22;6444;49.742;6.114;2023-12-29T09:41:35;9.20;99.90
12761;DHT22;6444;49.742;6.114;2023-12-29T09:44:01;9.20;99.90
12761;DHT22;6444;49.742;6.114;2023-12-29T09:46:28;9.40;99.90
12761;DHT22;6444;49.742;6.114;2023-12-29T09:48:55;9.40;99.90
12761;DHT22;6444;49.742;6.114;2023-12-29T09:51:21;9.40;99.90
12761;DHT22;6444;49.742;6.114;2023-12-29T09:53:48;9.50;99.90
12761;DHT22;6444;49.742;6.114;2023-12-29T09:56:15;9.70;99.90
12761;DHT22;6444;49.742;6.114;2023-12-29T09:58:41;9.70;99.90
12761;DHT22;6444;49.742;6.114;2023-12-29T10:01:09;9.90;99.90
12761;DHT22;6444;49.742;6.114;2023-12-29T10:03:35;9.90;99.90
12761;DHT22;6444;49.742;6.114;2023-12-29T10:06:03;9.90;99.90
12761;DHT22;6444;49.742;6.114;2023-12-29T10:08:28;9.80;99.90
12761;DHT22;6444;49.742;6.114;2023-12-29T10:10:55;9.60;99.90
12761;DHT22;6444;49.742;6.114;2023-12-29T10:13:22;9.50;99.90
12761;DHT22;6444;49.742;6.114;2023-12-29T10:15:54;9.50;99.90
12761;DHT22;6444;49.742;6.114;2023-12-29T10:18:28;9.50;99.90
12761;DHT22;6444;49.742;6.114;2023-12-29T10:21:07;9.60;99.90
12761;DHT22;6444;49.742;6.114;2023-12-29T10:23:32;9.50;99.90
12761;DHT22;6444;49.742;6.114;2023-12-29T10:25:55;9.50;99.90
12761;DHT22;6444;49.742;6.114;2023-12-29T10:28:22;9.50;99.90
12761;DHT22;6444;49.742;6.114;2023-12-29T10:30:49;9.50;99.90
12761;DHT22;6444;49.742;6.114;2023-12-29T10:33:21;9.40;99.90
12761;DHT22;6444;49.742;6.114;2023-12-29T10:35:58;9.40;99.90
12761;DHT22;6444;49.742;6.114;2023-12-29T10:38:24;9.50;99.90
12761;DHT22;6444;49.742;6.114;2023-12-29T10:40:50;9.50;99.90
12761;DHT22;6444;49.742;6.114;2023-12-29T10:43:21;9.50;99.90
12761;DHT22;6444;49.742;6.114;2023-12-29T10:45:44;9.50;99.90
12761;DHT22;6444;49.742;6.114;2023-12-29T10:48:10;9.60;99.90
12761;DHT22;6444;49.742;6.114;2023-12-29T10:50:43;9.60;99.90
12761;DHT22;6444;49.742;6.114;2023-12-29T10:53:15;9.70;99.90
12761;DHT22;6444;49.742;6.114;2023-12-29T10:55:44;9.70;99.90
12761;DHT22;6444;49.742;6.114;2023-12-29T10:58:11;9.50;99.90
12761;DHT22;6444;49.742;6.114;2023-12-29T11:00:38;9.90;99.90
12761;DHT22;6444;49.742;6.114;2023-12-29T11:03:04;9.90;99.90
12761;DHT22;6444;49.742;6.114;2023-12-29T11:05:31;9.90;99.90
12761;DHT22;6444;49.742;6.114;2023-12-29T11:07:58;9.70;99.90
12761;DHT22;6444;49.742;6.114;2023-12-29T11:10:24;9.60;99.90
12761;DHT22;6444;49.742;6.114;2023-12-29T11:12:51;9.70;99.90
12761;DHT22;6444;49.742;6.114;2023-12-29T11:15:18;9.80;99.90
12761;DHT22;6444;49.742;6.114;2023-12-29T11:17:44;9.70;99.90
12761;DHT22;6444;49.742;6.114;2023-12-29T11:20:12;9.90;99.90
12761;DHT22;6444;49.742;6.114;2023-12-29T11:22:38;9.90;99.90
12761;DHT22;6444;49.742;6.114;2023-12-29T11:25:05;9.80;99.90
12761;DHT22;6444;49.742;6.114;2023-12-29T11:27:32;9.60;99.90
12761;DHT22;6444;49.742;6.114;2023-12-29T11:29:59;9.50;99.90
12761;DHT22;6444;49.742;6.114;2023-12-29T11:35:24;9.60;99.90
12761;DHT22;6444;49.742;6.114;2023-12-29T11:38:20;9.50;99.90
12761;DHT22;6444;49.742;6.114;2023-12-29T11:41:02;9.30;99.90
12761;DHT22;6444;49.742;6.114;2023-12-29T11:43:27;9.30;99.90
12761;DHT22;6444;49.742;6.114;2023-12-29T11:45:54;9.60;99.90
12761;DHT22;6444;49.742;6.114;2023-12-29T11:51:32;9.50;99.90
12761;DHT22;6444;49.742;6.114;2023-12-29T11:53:54;9.50;99.90
12761;DHT22;6444;49.742;6.114;2023-12-29T11:56:21;9.40;99.90
12761;DHT22;6444;49.742;6.114;2023-12-29T11:58:47;9.50;99.90
12761;DHT22;6444;49.742;6.114;2023-12-29T12:01:36;9.50;99.90
12761;DHT22;6444;49.742;6.114;2023-12-29T12:03:41;9.50;99.90
12761;DHT22;6444;49.742;6.114;2023-12-29T12:06:08;9.70;99.90
12761;DHT22;6444;49.742;6.114;2023-12-29T12:08:35;9.80;99.90
12761;DHT22;6444;49.742;6.114;2023-12-29T12:13:47;9.80;99.90
12761;DHT22;6444;49.742;6.114;2023-12-29T12:19:11;9.90;99.90
12761;DHT22;6444;49.742;6.114;2023-12-29T12:21:38;9.90;99.90
12761;DHT22;6444;49.742;6.114;2023-12-29T12:24:04;9.90;99.90
12761;DHT22;6444;49.742;6.114;2023-12-29T12:26:31;10.00;99.90
12761;DHT22;6444;49.742;6.114;2023-12-29T12:28:58;10.10;99.90
12761;DHT22;6444;49.742;6.114;2023-12-29T12:31:24;10.00;99.90
12761;DHT22;6444;49.742;6.114;2023-12-29T12:33:57;10.00;99.90
12761;DHT22;6444;49.742;6.114;2023-12-29T12:36:23;10.10;99.90
12761;DHT22;6444;49.742;6.114;2023-12-29T12:38:53;10.20;99.90
12761;DHT22;6444;49.742;6.114;2023-12-29T12:41:23;10.20;99.90
12761;DHT22;6444;49.742;6.114;2023-12-29T12:44:11;10.30;99.90
12761;DHT22;6444;49.742;6.114;2023-12-29T12:46:16;10.40;99.90
12761;DHT22;6444;49.742;6.114;2023-12-29T12:48:43;10.20;99.90
12761;DHT22;6444;49.742;6.114;2023-12-29T12:51:09;10.00;99.90
12761;DHT22;6444;49.742;6.114;2023-12-29T12:53:39;10.10;99.90
12761;DHT22;6444;49.742;6.114;2023-12-29T12:56:04;10.00;99.90
12761;DHT22;6444;49.742;6.114;2023-12-29T12:58:29;10.10;99.90
12761;DHT22;6444;49.742;6.114;2023-12-29T13:00:56;9.90;99.90
12761;DHT22;6444;49.742;6.114;2023-12-29T13:03:22;9.90;99.90
12761;DHT22;6444;49.742;6.114;2023-12-29T13:05:49;9.80;99.90
12761;DHT22;6444;49.742;6.114;2023-12-29T13:08:16;10.00;99.90
12761;DHT22;6444;49.742;6.114;2023-12-29T13:10:42;10.10;99.90
12761;DHT22;6444;49.742;6.114;2023-12-29T13:13:12;10.10;99.90
12761;DHT22;6444;49.742;6.114;2023-12-29T13:15:46;10.20;99.90
12761;DHT22;6444;49.742;6.114;2023-12-29T13:18:03;10.20;99.90
12761;DHT22;6444;49.742;6.114;2023-12-29T13:20:30;10.30;99.90
12761;DHT22;6444;49.742;6.114;2023-12-29T13:22:56;10.30;99.90
12761;DHT22;6444;49.742;6.114;2023-12-29T13:25:26;10.40;99.90
12761;DHT22;6444;49.742;6.114;2023-12-29T13:27:52;10.20;99.90
12761;DHT22;6444;49.742;6.114;2023-12-29T13:30:19;10.20;99.90
12761;DHT22;6444;49.742;6.114;2023-12-29T13:32:46;9.90;99.90
12761;DHT22;6444;49.742;6.114;2023-12-29T13:37:51;9.90;99.90
12761;DHT22;6444;49.742;6.114;2023-12-29T13:40:27;9.70;99.90
12761;DHT22;6444;49.742;6.114;2023-12-29T13:42:54;9.70;99.90
12761;DHT22;6444;49.742;6.114;2023-12-29T13:45:19;9.60;99.90
12761;DHT22;6444;49.742;6.114;2023-12-29T13:47:46;9.50;99.90
12761;DHT22;6444;49.742;6.114;2023-12-29T13:50:13;9.30;99.90
12761;DHT22;6444;49.742;6.114;2023-12-29T13:52:39;9.20;99.90
12761;DHT22;6444;49.742;6.114;2023-12-29T13:55:06;9.40;99.90
12761;DHT22;6444;49.742;6.114;2023-12-29T13:57:33;9.80;99.90
12761;DHT22;6444;49.742;6.114;2023-12-29T14:00:21;9.60;99.90
12761;DHT22;6444;49.742;6.114;2023-12-29T14:05:47;9.50;99.90
12761;DHT22;6444;49.742;6.114;2023-12-29T14:08:17;9.40;99.90
12761;DHT22;6444;49.742;6.114;2023-12-29T14:10:43;9.30;99.90
12761;DHT22;6444;49.742;6.114;2023-12-29T14:13:14;9.20;99.90
12761;DHT22;6444;49.742;6.114;2023-12-29T14:15:40;9.30;99.90
12761;DHT22;6444;49.742;6.114;2023-12-29T14:20:41;9.40;99.90
12761;DHT22;6444;49.742;6.114;2023-12-29T14:23:05;9.40;99.90
12761;DHT22;6444;49.742;6.114;2023-12-29T14:25:35;9.50;99.90
12761;DHT22;6444;49.742;6.114;2023-12-29T14:28:02;9.60;99.90
12761;DHT22;6444;49.742;6.114;2023-12-29T14:30:28;9.50;99.90
12761;DHT22;6444;49.742;6.114;2023-12-29T14:32:54;9.50;99.90
12761;DHT22;6444;49.742;6.114;2023-12-29T14:35:21;9.40;99.90
12761;DHT22;6444;49.742;6.114;2023-12-29T14:37:48;9.40;99.90
12761;DHT22;6444;49.742;6.114;2023-12-29T14:40:14;9.60;99.90
12761;DHT22;6444;49.742;6.114;2023-12-29T14:42:41;9.50;99.90
12761;DHT22;6444;49.742;6.114;2023-12-29T14:45:08;9.40;99.90
12761;DHT22;6444;49.742;6.114;2023-12-29T14:47:34;9.40;99.90
12761;DHT22;6444;49.742;6.114;2023-12-29T14:50:01;9.40;99.90
12761;DHT22;6444;49.742;6.114;2023-12-29T14:52:28;9.40;99.90
12761;DHT22;6444;49.742;6.114;2023-12-29T14:54:54;9.20;99.90
12761;DHT22;6444;49.742;6.114;2023-12-29T14:57:21;9.20;99.90
12761;DHT22;6444;49.742;6.114;2023-12-29T14:59:47;9.30;99.90
12761;DHT22;6444;49.742;6.114;2023-12-29T15:02:14;9.40;99.90
12761;DHT22;6444;49.742;6.114;2023-12-29T15:04:41;9.50;99.90
12761;DHT22;6444;49.742;6.114;2023-12-29T15:07:07;9.40;99.90
12761;DHT22;6444;49.742;6.114;2023-12-29T15:09:34;9.50;99.90
12761;DHT22;6444;49.742;6.114;2023-12-29T15:12:01;9.30;99.90
12761;DHT22;6444;49.742;6.114;2023-12-29T15:14:27;9.30;99.90
12761;DHT22;6444;49.742;6.114;2023-12-29T15:16:54;9.20;99.90
12761;DHT22;6444;49.742;6.114;2023-12-29T15:19:20;9.30;99.90
12761;DHT22;6444;49.742;6.114;2023-12-29T15:21:47;9.50;99.90
12761;DHT22;6444;49.742;6.114;2023-12-29T15:24:14;9.30;99.90
12761;DHT22;6444;49.742;6.114;2023-12-29T15:26:41;9.30;99.90
12761;DHT22;6444;49.742;6.114;2023-12-29T15:29:08;9.60;99.90
12761;DHT22;6444;49.742;6.114;2023-12-29T15:31:35;9.20;99.90
12761;DHT22;6444;49.742;6.114;2023-12-29T15:34:02;9.20;99.90
12761;DHT22;6444;49.742;6.114;2023-12-29T15:36:28;9.40;99.90
12761;DHT22;6444;49.742;6.114;2023-12-29T15:38:55;9.40;99.90
12761;DHT22;6444;49.742;6.114;2023-12-29T15:41:21;9.30;99.90
12761;DHT22;6444;49.742;6.114;2023-12-29T15:43:48;9.50;99.90
12761;DHT22;6444;49.742;6.114;2023-12-29T15:46:15;9.40;99.90
12761;DHT22;6444;49.742;6.114;2023-12-29T15:48:42;9.50;99.90
12761;DHT22;6444;49.742;6.114;2023-12-29T15:51:08;9.70;99.90
12761;DHT22;6444;49.742;6.114;2023-12-29T15:53:37;9.90;99.90
12761;DHT22;6444;49.742;6.114;2023-12-29T15:56:04;9.70;99.90
12761;DHT22;6444;49.742;6.114;2023-12-29T15:58:31;9.40;99.90
12761;DHT22;6444;49.742;6.114;2023-12-29T16:00:58;9.20;99.90
12761;DHT22;6444;49.742;6.114;2023-12-29T16:03:25;9.10;99.90
12761;DHT22;6444;49.742;6.114;2023-12-29T16:05:51;9.20;99.90
12761;DHT22;6444;49.742;6.114;2023-12-29T16:08:18;9.40;99.90
12761;DHT22;6444;49.742;6.114;2023-12-29T16:10:44;9.30;99.90
12761;DHT22;6444;49.742;6.114;2023-12-29T16:13:11;9.50;99.90
12761;DHT22;6444;49.742;6.114;2023-12-29T16:15:38;9.70;99.90
12761;DHT22;6444;49.742;6.114;2023-12-29T16:18:04;9.40;99.90
12761;DHT22;6444;49.742;6.114;2023-12-29T16:20:31;9.60;99.90